createdAt,value
2018-11-26T00:01:58.981Z,2.70
2018-11-26T00:04:26.575Z,2.70
2018-11-26T00:06:54.153Z,2.70
2018-11-26T00:09:21.805Z,2.70
2018-11-26T00:11:49.538Z,2.70
2018-11-26T00:14:17.136Z,2.70
2018-11-26T00:16:44.699Z,2.70
2018-11-26T00:19:12.301Z,2.70
2018-11-26T00:21:40.003Z,2.80
2018-11-26T00:24:07.693Z,2.80
2018-11-26T00:26:35.299Z,2.80
2018-11-26T00:29:02.925Z,2.70
2018-11-26T00:31:31.602Z,2.70
2018-11-26T00:33:59.205Z,2.70
2018-11-26T00:36:26.821Z,2.70
2018-11-26T00:38:54.446Z,2.80
2018-11-26T00:41:22.049Z,2.70
2018-11-26T00:43:49.631Z,2.70
2018-11-26T00:46:17.243Z,2.70
2018-11-26T00:48:44.820Z,2.70
2018-11-26T00:51:12.411Z,2.70
2018-11-26T00:53:40.008Z,2.70
2018-11-26T00:56:07.593Z,2.80
2018-11-26T00:58:35.223Z,2.80
2018-11-26T01:01:02.898Z,2.80
2018-11-26T01:03:30.474Z,2.80
2018-11-26T01:05:58.069Z,2.90
2018-11-26T01:08:25.670Z,2.80
2018-11-26T01:10:53.370Z,2.90
2018-11-26T01:13:21.003Z,2.90
2018-11-26T01:15:48.772Z,2.90
2018-11-26T01:18:16.397Z,2.90
2018-11-26T01:20:44.039Z,2.90
2018-11-26T01:23:11.640Z,2.90
2018-11-26T01:25:39.271Z,2.90
2018-11-26T01:28:06.931Z,3.00
2018-11-26T01:30:35.385Z,2.90
2018-11-26T01:33:03.020Z,2.90
2018-11-26T01:35:30.698Z,3.00
2018-11-26T01:37:59.278Z,3.00
2018-11-26T01:40:32.641Z,3.00
2018-11-26T01:43:00.261Z,3.00
2018-11-26T01:45:27.830Z,3.00
2018-11-26T01:47:55.434Z,3.00
2018-11-26T01:50:23.041Z,3.00
2018-11-26T01:52:50.634Z,2.90
2018-11-26T01:55:18.245Z,2.90
2018-11-26T01:57:45.826Z,2.90
2018-11-26T02:00:19.564Z,2.90
2018-11-26T02:02:47.210Z,2.90
2018-11-26T02:05:14.836Z,2.90
2018-11-26T02:07:42.774Z,2.90
2018-11-26T02:10:12.762Z,2.90
2018-11-26T02:12:40.517Z,2.90
2018-11-26T02:15:09.758Z,2.90
2018-11-26T02:17:38.658Z,2.90
2018-11-26T02:20:06.654Z,2.90
2018-11-26T02:22:34.443Z,2.90
2018-11-26T02:25:02.368Z,2.90
2018-11-26T02:27:30.037Z,2.90
2018-11-26T02:29:57.775Z,3.00
2018-11-26T02:32:25.664Z,3.00
2018-11-26T02:34:53.592Z,2.90
2018-11-26T02:37:21.230Z,2.90
2018-11-26T02:39:48.916Z,2.90
2018-11-26T02:42:16.617Z,2.90
2018-11-26T02:44:44.392Z,3.00
2018-11-26T02:47:12.044Z,2.90
2018-11-26T02:49:39.807Z,2.90
2018-11-26T02:52:08.022Z,2.90
2018-11-26T02:54:35.888Z,2.90
2018-11-26T02:57:03.688Z,2.90
2018-11-26T02:59:31.797Z,2.90
2018-11-26T03:01:59.520Z,2.90
2018-11-26T03:04:28.126Z,2.90
2018-11-26T03:06:56.040Z,2.90
2018-11-26T03:09:23.852Z,2.90
2018-11-26T03:11:51.547Z,2.90
2018-11-26T03:14:19.182Z,2.80
2018-11-26T03:16:46.833Z,2.90
2018-11-26T03:19:15.133Z,2.80
2018-11-26T03:21:42.983Z,2.80
2018-11-26T03:24:10.631Z,2.80
2018-11-26T03:26:38.845Z,2.80
2018-11-26T03:29:06.877Z,2.80
2018-11-26T03:31:34.722Z,2.80
2018-11-26T03:34:02.485Z,2.80
2018-11-26T03:36:31.255Z,2.80
2018-11-26T03:38:59.711Z,2.80
2018-11-26T03:41:27.276Z,2.80
2018-11-26T03:43:54.855Z,2.80
2018-11-26T03:46:22.507Z,2.80
2018-11-26T03:48:50.212Z,2.80
2018-11-26T03:51:17.859Z,2.80
2018-11-26T03:53:45.533Z,2.70
2018-11-26T03:56:13.190Z,2.80
2018-11-26T03:58:41.057Z,2.70
2018-11-26T04:01:08.731Z,2.70
2018-11-26T04:03:37.052Z,2.70
2018-11-26T04:06:04.769Z,2.70
2018-11-26T04:08:32.460Z,2.70
2018-11-26T04:11:01.620Z,2.70
2018-11-26T04:13:29.352Z,2.70
2018-11-26T04:15:57.633Z,2.70
2018-11-26T04:18:25.488Z,2.70
2018-11-26T04:20:53.720Z,2.70
2018-11-26T04:23:21.864Z,2.70
2018-11-26T04:25:49.464Z,2.70
2018-11-26T04:28:17.118Z,2.70
2018-11-26T04:30:44.824Z,2.70
2018-11-26T04:33:13.848Z,2.70
2018-11-26T04:35:41.537Z,2.70
2018-11-26T04:38:10.231Z,2.70
2018-11-26T04:40:37.977Z,2.70
2018-11-26T04:43:05.728Z,2.70
2018-11-26T04:45:34.309Z,2.70
2018-11-26T04:48:02.386Z,2.70
2018-11-26T04:50:33.323Z,2.70
2018-11-26T04:53:01.127Z,2.70
2018-11-26T04:55:28.858Z,2.70
2018-11-26T04:57:56.828Z,2.70
2018-11-26T05:00:24.476Z,2.70
2018-11-26T05:02:52.201Z,2.70
2018-11-26T05:05:19.843Z,2.70
2018-11-26T05:07:47.523Z,2.70
2018-11-26T05:10:15.147Z,2.70
2018-11-26T05:12:42.888Z,2.70
2018-11-26T05:15:11.554Z,2.60
2018-11-26T05:17:39.214Z,2.60
2018-11-26T05:20:13.793Z,2.60
2018-11-26T05:22:41.556Z,2.50
2018-11-26T05:25:09.941Z,2.60
2018-11-26T05:27:37.648Z,2.60
2018-11-26T05:30:07.467Z,2.50
2018-11-26T05:32:35.179Z,2.50
2018-11-26T05:35:02.945Z,2.50
2018-11-26T05:37:30.566Z,2.50
2018-11-26T05:39:58.227Z,2.50
2018-11-26T05:42:28.797Z,2.50
2018-11-26T05:44:53.531Z,2.50
2018-11-26T05:47:21.156Z,2.50
2018-11-26T05:49:48.901Z,2.50
2018-11-26T05:52:17.508Z,2.60
2018-11-26T05:54:45.091Z,2.60
2018-11-26T05:57:12.653Z,2.60
2018-11-26T05:59:40.229Z,2.60
2018-11-26T06:02:07.914Z,2.60
2018-11-26T06:04:35.524Z,2.60
2018-11-26T06:07:03.105Z,2.60
2018-11-26T06:09:31.802Z,2.50
2018-11-26T06:11:59.464Z,2.60
2018-11-26T06:14:27.137Z,2.60
2018-11-26T06:16:54.823Z,2.60
2018-11-26T06:19:22.973Z,2.50
2018-11-26T06:21:50.874Z,2.50
2018-11-26T06:24:18.425Z,2.50
2018-11-26T06:26:46.216Z,2.50
2018-11-26T06:29:14.748Z,2.50
2018-11-26T06:31:42.438Z,2.50
2018-11-26T06:34:10.304Z,2.50
2018-11-26T06:36:38.037Z,2.50
2018-11-26T06:39:07.581Z,2.50
2018-11-26T06:41:35.656Z,2.50
2018-11-26T06:44:04.429Z,2.50
2018-11-26T06:46:34.081Z,2.50
2018-11-26T06:49:01.658Z,2.50
2018-11-26T06:51:29.340Z,2.50
2018-11-26T06:53:58.368Z,2.50
2018-11-26T06:56:26.633Z,2.50
2018-11-26T06:58:54.441Z,2.50
2018-11-26T07:01:22.124Z,2.60
2018-11-26T07:03:49.806Z,2.50
2018-11-26T07:06:17.596Z,2.50
2018-11-26T07:08:45.367Z,2.50
2018-11-26T07:11:13.222Z,2.50
2018-11-26T07:13:42.008Z,2.50
2018-11-26T07:16:09.775Z,2.50
2018-11-26T07:18:37.502Z,2.50
2018-11-26T07:21:05.980Z,2.50
2018-11-26T07:23:33.710Z,2.50
2018-11-26T07:26:01.778Z,2.50
2018-11-26T07:28:29.510Z,2.50
2018-11-26T07:30:57.149Z,2.40
2018-11-26T07:33:24.790Z,2.50
2018-11-26T07:35:52.412Z,2.50
2018-11-26T07:38:20.268Z,2.40
2018-11-26T07:40:47.868Z,2.40
2018-11-26T07:43:15.684Z,2.40
2018-11-26T07:45:43.453Z,2.40
2018-11-26T07:48:11.729Z,2.50
2018-11-26T07:50:39.481Z,2.50
2018-11-26T07:53:08.188Z,2.50
2018-11-26T07:55:36.285Z,2.50
2018-11-26T07:58:03.993Z,2.50
2018-11-26T08:00:31.727Z,2.50
2018-11-26T08:02:59.401Z,2.60
2018-11-26T08:05:27.069Z,2.60
2018-11-26T08:07:55.248Z,2.60
2018-11-26T08:10:23.700Z,2.70
2018-11-26T08:12:52.388Z,2.70
2018-11-26T08:15:24.767Z,2.70
2018-11-26T08:17:52.386Z,2.70
2018-11-26T08:20:20.221Z,2.70
2018-11-26T08:22:48.065Z,2.70
2018-11-26T08:25:16.984Z,2.70
2018-11-26T08:27:45.636Z,2.70
2018-11-26T08:30:15.156Z,2.70
2018-11-26T08:32:43.709Z,2.70
2018-11-26T08:35:12.823Z,2.70
2018-11-26T08:37:46.202Z,2.70
2018-11-26T08:40:21.656Z,2.80
2018-11-26T08:44:02.783Z,2.80
2018-11-26T08:46:31.847Z,2.80
2018-11-26T08:49:06.993Z,2.80
2018-11-26T08:51:35.046Z,2.80
2018-11-26T08:54:02.747Z,2.80
2018-11-26T08:56:33.679Z,2.80
2018-11-26T08:59:02.610Z,2.80
2018-11-26T09:01:39.733Z,2.80
2018-11-26T09:04:14.693Z,2.80
2018-11-26T09:06:42.523Z,2.80
2018-11-26T09:09:11.143Z,2.80
2018-11-26T09:11:38.931Z,2.80
2018-11-26T09:14:06.585Z,2.90
2018-11-26T09:16:34.656Z,2.90
2018-11-26T09:19:02.317Z,2.90
2018-11-26T09:21:29.995Z,2.90
2018-11-26T09:23:57.629Z,2.90
2018-11-26T09:26:25.337Z,2.90
2018-11-26T09:28:53.074Z,2.90
2018-11-26T09:31:20.703Z,3.00
2018-11-26T09:33:48.433Z,3.00
2018-11-26T09:36:16.215Z,3.00
2018-11-26T09:38:44.046Z,3.00
2018-11-26T09:41:11.765Z,3.10
2018-11-26T09:43:39.689Z,3.10
2018-11-26T09:46:07.439Z,3.10
2018-11-26T09:48:35.148Z,3.20
2018-11-26T09:51:02.866Z,3.20
2018-11-26T09:53:30.584Z,3.30
2018-11-26T09:55:58.421Z,3.30
2018-11-26T09:58:26.163Z,3.30
2018-11-26T10:00:53.751Z,3.30
2018-11-26T10:03:21.487Z,3.40
2018-11-26T10:05:49.203Z,3.40
2018-11-26T10:08:16.981Z,3.40
2018-11-26T10:10:44.795Z,3.40
2018-11-26T10:13:12.453Z,3.40
2018-11-26T10:15:40.276Z,3.40
2018-11-26T10:18:08.000Z,3.40
2018-11-26T10:20:35.608Z,3.40
2018-11-26T10:23:03.344Z,3.40
2018-11-26T10:25:31.000Z,3.50
2018-11-26T10:27:58.600Z,3.50
2018-11-26T10:30:26.324Z,3.50
2018-11-26T10:32:54.028Z,3.50
2018-11-26T10:35:21.899Z,3.60
2018-11-26T10:37:49.570Z,3.60
2018-11-26T10:40:21.967Z,3.60
2018-11-26T10:42:49.729Z,3.70
2018-11-26T10:45:19.209Z,3.70
2018-11-26T10:47:46.927Z,3.70
2018-11-26T10:50:18.813Z,3.70
2018-11-26T10:52:50.395Z,3.70
2018-11-26T10:55:23.221Z,3.80
2018-11-26T10:57:50.934Z,3.80
2018-11-26T11:00:25.129Z,3.80
2018-11-26T11:02:52.842Z,3.90
2018-11-26T11:05:20.497Z,3.90
2018-11-26T11:07:48.173Z,3.90
2018-11-26T11:10:18.088Z,4.00
2018-11-26T11:12:45.761Z,4.00
2018-11-26T11:15:13.595Z,4.00
2018-11-26T11:17:41.389Z,4.00
2018-11-26T11:20:13.144Z,3.90
2018-11-26T11:22:40.915Z,3.90
2018-11-26T11:25:09.663Z,3.90
2018-11-26T11:27:37.405Z,4.00
2018-11-26T11:30:11.916Z,4.00
2018-11-26T11:32:39.903Z,4.00
2018-11-26T11:35:08.290Z,3.90
2018-11-26T11:37:36.354Z,3.90
2018-11-26T11:40:09.611Z,3.90
2018-11-26T11:42:37.393Z,3.90
2018-11-26T11:45:07.028Z,3.90
2018-11-26T11:47:34.818Z,3.90
2018-11-26T11:50:02.846Z,3.90
2018-11-26T11:52:31.683Z,3.90
2018-11-26T11:54:59.407Z,3.90
2018-11-26T11:57:27.591Z,3.90
2018-11-26T11:59:55.294Z,3.90
2018-11-26T12:02:22.954Z,3.90
2018-11-26T12:04:50.863Z,3.90
2018-11-26T12:07:18.359Z,3.90
2018-11-26T12:09:46.110Z,3.80
2018-11-26T12:12:13.735Z,3.80
2018-11-26T12:14:41.509Z,3.80
2018-11-26T12:17:09.266Z,3.70
2018-11-26T12:19:36.997Z,3.70
2018-11-26T12:22:04.864Z,3.70
2018-11-26T12:24:32.466Z,3.70
2018-11-26T12:27:00.144Z,3.70
2018-11-26T12:29:27.812Z,3.60
2018-11-26T12:31:56.525Z,3.60
2018-11-26T12:34:24.297Z,3.60
2018-11-26T12:36:52.022Z,3.60
2018-11-26T12:39:19.634Z,3.60
2018-11-26T12:41:47.493Z,3.60
2018-11-26T12:44:15.229Z,3.50
2018-11-26T12:46:42.900Z,3.60
2018-11-26T12:49:10.547Z,3.50
2018-11-26T12:51:38.237Z,3.60
2018-11-26T12:54:06.086Z,3.60
2018-11-26T12:56:33.702Z,3.50
2018-11-26T12:59:01.361Z,3.50
2018-11-26T13:01:29.226Z,3.50
2018-11-26T13:03:57.852Z,3.60
2018-11-26T13:06:25.580Z,3.50
2018-11-26T13:08:53.260Z,3.60
2018-11-26T13:11:21.057Z,3.60
2018-11-26T13:13:48.713Z,3.60
2018-11-26T13:16:16.474Z,3.60
2018-11-26T13:18:44.306Z,3.60
2018-11-26T13:21:12.066Z,3.60
2018-11-26T13:23:39.863Z,3.60
2018-11-26T13:26:08.635Z,3.60
2018-11-26T13:28:37.175Z,3.60
2018-11-26T13:31:05.229Z,3.50
2018-11-26T13:33:33.058Z,3.50
2018-11-26T13:36:00.665Z,3.60
2018-11-26T13:38:29.390Z,3.50
2018-11-26T13:40:57.148Z,3.40
2018-11-26T13:43:24.883Z,3.40
2018-11-26T13:45:52.559Z,3.40
2018-11-26T13:48:20.406Z,3.30
2018-11-26T13:50:50.667Z,3.30
2018-11-26T13:53:18.546Z,3.20
2018-11-26T13:55:46.286Z,3.20
2018-11-26T13:58:14.146Z,3.10
2018-11-26T14:00:41.902Z,3.10
2018-11-26T14:03:09.641Z,3.10
2018-11-26T14:05:37.281Z,3.10
2018-11-26T14:08:05.249Z,3.10
2018-11-26T14:10:32.913Z,3.10
2018-11-26T14:13:06.080Z,3.10
2018-11-26T14:15:34.858Z,3.10
2018-11-26T14:18:03.246Z,3.10
2018-11-26T14:20:30.993Z,3.00
2018-11-26T14:22:58.970Z,3.10
2018-11-26T14:25:27.279Z,3.00
2018-11-26T14:27:54.958Z,3.00
2018-11-26T14:30:24.671Z,3.00
2018-11-26T14:32:52.621Z,3.00
2018-11-26T14:35:21.251Z,3.00
2018-11-26T14:37:52.059Z,2.90
2018-11-26T14:40:31.799Z,2.90
2018-11-26T14:42:59.599Z,2.80
2018-11-26T14:45:27.400Z,2.80
2018-11-26T14:47:55.851Z,2.80
2018-11-26T14:50:24.287Z,2.70
2018-11-26T14:52:52.010Z,2.70
2018-11-26T14:55:26.649Z,2.70
2018-11-26T14:57:55.379Z,2.60
2018-11-26T15:00:23.128Z,2.60
2018-11-26T15:02:50.923Z,2.60
2018-11-26T15:05:18.737Z,2.60
2018-11-26T15:07:46.518Z,2.50
2018-11-26T15:10:15.096Z,2.50
2018-11-26T15:12:43.438Z,2.50
2018-11-26T15:15:13.514Z,2.40
2018-11-26T15:17:42.056Z,2.40
2018-11-26T15:20:18.613Z,2.40
2018-11-26T15:22:46.380Z,2.40
2018-11-26T15:25:17.857Z,2.40
2018-11-26T15:27:45.573Z,2.40
2018-11-26T15:30:16.695Z,2.40
2018-11-26T15:32:44.507Z,2.40
2018-11-26T15:35:14.012Z,2.40
2018-11-26T15:37:41.772Z,2.40
2018-11-26T15:40:11.490Z,2.40
2018-11-26T15:42:39.275Z,2.30
2018-11-26T15:45:25.851Z,2.30
2018-11-26T15:47:54.550Z,2.30
2018-11-26T15:50:22.198Z,2.30
2018-11-26T15:52:49.862Z,2.30
2018-11-26T15:55:19.886Z,2.30
2018-11-26T15:57:48.093Z,2.30
2018-11-26T16:00:17.499Z,2.40
2018-11-26T16:02:45.592Z,2.40
2018-11-26T16:05:16.508Z,2.40
2018-11-26T16:07:44.622Z,2.40
2018-11-26T16:10:13.134Z,2.40
2018-11-26T16:12:41.305Z,2.40
2018-11-26T16:15:14.172Z,2.40
2018-11-26T16:17:41.952Z,2.40
2018-11-26T16:20:12.317Z,2.40
2018-11-26T16:22:46.598Z,2.40
2018-11-26T16:25:16.556Z,2.40
2018-11-26T16:27:44.433Z,2.40
2018-11-26T16:30:13.441Z,2.40
2018-11-26T16:32:44.301Z,2.40
2018-11-26T16:35:17.304Z,2.50
2018-11-26T16:37:44.987Z,2.40
2018-11-26T16:40:14.034Z,2.40
2018-11-26T16:42:41.867Z,2.40
2018-11-26T16:45:13.358Z,2.40
2018-11-26T16:47:41.121Z,2.40
2018-11-26T16:50:11.042Z,2.40
2018-11-26T16:52:38.757Z,2.40
2018-11-26T16:55:08.596Z,2.40
2018-11-26T16:57:36.941Z,2.40
2018-11-26T17:00:10.784Z,2.40
2018-11-26T17:02:38.363Z,2.40
2018-11-26T17:05:11.023Z,2.40
2018-11-26T17:07:39.718Z,2.30
2018-11-26T17:10:08.762Z,2.30
2018-11-26T17:12:36.781Z,2.30
2018-11-26T17:15:07.085Z,2.30
2018-11-26T17:17:34.750Z,2.30
2018-11-26T17:20:02.503Z,2.30
2018-11-26T17:22:30.157Z,2.30
2018-11-26T17:24:57.859Z,2.30
2018-11-26T17:27:25.520Z,2.20
2018-11-26T17:29:53.570Z,2.20
2018-11-26T17:32:21.306Z,2.20
2018-11-26T17:34:49.023Z,2.30
2018-11-26T17:37:16.658Z,2.20
2018-11-26T17:39:44.403Z,2.30
2018-11-26T17:42:12.010Z,2.30
2018-11-26T17:44:39.672Z,2.30
2018-11-26T17:47:07.307Z,2.20
2018-11-26T17:49:35.093Z,2.20
2018-11-26T17:52:02.935Z,2.20
2018-11-26T17:54:30.777Z,2.20
2018-11-26T17:56:59.027Z,2.20
2018-11-26T17:59:27.969Z,2.20
2018-11-26T18:01:56.764Z,2.20
2018-11-26T18:04:25.199Z,2.20
2018-11-26T18:06:52.997Z,2.20
2018-11-26T18:09:22.864Z,2.20
2018-11-26T18:11:48.660Z,2.20
2018-11-26T18:14:16.410Z,2.30
2018-11-26T18:16:45.161Z,2.30
2018-11-26T18:19:14.442Z,2.30
2018-11-26T18:21:42.077Z,2.30
2018-11-26T18:24:09.935Z,2.30
2018-11-26T18:26:37.664Z,2.30
2018-11-26T18:29:06.940Z,2.20
2018-11-26T18:31:35.250Z,2.20
2018-11-26T18:34:03.567Z,2.20
2018-11-26T18:36:31.920Z,2.20
2018-11-26T18:39:00.307Z,2.10
2018-11-26T18:41:30.056Z,2.10
2018-11-26T18:43:58.557Z,2.10
2018-11-26T18:46:28.476Z,2.10
2018-11-26T18:48:57.262Z,2.10
2018-11-26T18:51:27.141Z,2.10
2018-11-26T18:53:55.368Z,2.10
2018-11-26T18:56:24.610Z,2.10
2018-11-26T18:58:53.338Z,2.10
2018-11-26T19:01:21.177Z,2.10
2018-11-26T19:03:49.058Z,2.00
2018-11-26T19:06:18.121Z,2.00
2018-11-26T19:08:46.870Z,2.00
2018-11-26T19:11:16.089Z,2.00
2018-11-26T19:13:55.463Z,1.90
2018-11-26T19:16:25.579Z,1.90
2018-11-26T19:18:53.258Z,1.90
2018-11-26T19:21:20.917Z,1.90
2018-11-26T19:23:48.688Z,1.90
2018-11-26T19:26:17.226Z,1.90
2018-11-26T19:28:46.556Z,1.90
2018-11-26T19:31:15.060Z,1.80
2018-11-26T19:33:42.690Z,1.90
2018-11-26T19:36:10.597Z,1.80
2018-11-26T19:38:38.212Z,1.80
2018-11-26T19:41:06.107Z,1.90
2018-11-26T19:43:34.389Z,1.90
2018-11-26T19:46:06.047Z,1.80
2018-11-26T19:48:33.829Z,1.80
2018-11-26T19:51:01.482Z,1.80
2018-11-26T19:53:29.194Z,1.90
2018-11-26T19:55:56.832Z,1.80
2018-11-26T19:58:25.482Z,1.80
2018-11-26T20:00:53.260Z,1.90
2018-11-26T20:03:26.183Z,1.90
2018-11-26T20:06:35.752Z,1.90
2018-11-26T20:09:04.794Z,1.90
2018-11-26T20:11:33.306Z,1.90
2018-11-26T20:14:00.027Z,1.90
2018-11-26T20:16:35.611Z,1.90
2018-11-26T20:19:03.220Z,1.90
2018-11-26T20:21:31.822Z,1.90
2018-11-26T20:23:59.438Z,1.90
2018-11-26T20:26:27.014Z,1.90
2018-11-26T20:28:56.882Z,1.80
2018-11-26T20:31:22.237Z,1.80
2018-11-26T20:33:50.042Z,1.80
2018-11-26T20:36:17.676Z,1.80
2018-11-26T20:38:45.289Z,1.80
2018-11-26T20:41:13.543Z,1.80
2018-11-26T20:43:41.229Z,1.80
2018-11-26T20:46:08.847Z,1.90
2018-11-26T20:48:40.698Z,1.80
2018-11-26T20:51:08.643Z,1.80
2018-11-26T20:53:37.363Z,1.80
2018-11-26T20:56:11.905Z,1.90
2018-11-26T20:58:39.550Z,1.90
2018-11-26T21:01:07.282Z,1.80
2018-11-26T21:03:34.877Z,1.90
2018-11-26T21:06:03.137Z,1.90
2018-11-26T21:08:30.785Z,1.90
2018-11-26T21:10:58.425Z,1.90
2018-11-26T21:13:26.049Z,1.90
2018-11-26T21:15:53.642Z,1.90
2018-11-26T21:18:21.217Z,1.90
2018-11-26T21:20:49.629Z,1.90
2018-11-26T21:23:22.044Z,1.90
2018-11-26T21:25:49.827Z,1.90
2018-11-26T21:28:17.678Z,2.00
2018-11-26T21:30:45.390Z,2.00
2018-11-26T21:33:13.008Z,1.90
2018-11-26T21:35:40.586Z,2.00
2018-11-26T21:38:09.373Z,2.00
2018-11-26T21:40:37.792Z,2.00
2018-11-26T21:43:05.752Z,2.00
2018-11-26T21:45:35.261Z,2.00
2018-11-26T21:48:02.875Z,2.00
2018-11-26T21:50:30.434Z,2.00
2018-11-26T21:52:58.079Z,2.00
2018-11-26T21:55:26.051Z,2.00
2018-11-26T21:57:53.585Z,2.00
2018-11-26T22:00:23.515Z,2.00
2018-11-26T22:02:52.127Z,2.00
2018-11-26T22:05:20.632Z,2.10
2018-11-26T22:07:48.229Z,2.10
2018-11-26T22:10:20.126Z,2.10
2018-11-26T22:12:51.037Z,2.10
2018-11-26T22:15:18.630Z,2.10
2018-11-26T22:17:47.358Z,2.10
2018-11-26T22:20:18.049Z,2.10
2018-11-26T22:22:46.135Z,2.10
2018-11-26T22:25:13.899Z,2.20
2018-11-26T22:27:41.495Z,2.20
2018-11-26T22:30:26.902Z,2.20
2018-11-26T22:32:54.541Z,2.20
2018-11-26T22:35:22.091Z,2.20
2018-11-26T22:37:49.701Z,2.20
2018-11-26T22:40:19.873Z,2.20
2018-11-26T22:42:47.445Z,2.30
2018-11-26T22:45:16.073Z,2.30
2018-11-26T22:47:46.378Z,2.30
2018-11-26T22:50:14.736Z,2.30
2018-11-26T22:52:42.583Z,2.30
2018-11-26T22:55:11.768Z,2.30
2018-11-26T22:57:39.895Z,2.30
2018-11-26T23:00:13.146Z,2.30
2018-11-26T23:02:41.714Z,2.30
2018-11-26T23:05:13.369Z,2.20
2018-11-26T23:07:40.962Z,2.20
2018-11-26T23:10:09.266Z,2.20
2018-11-26T23:12:36.905Z,2.20
2018-11-26T23:15:10.322Z,2.20
2018-11-26T23:17:37.927Z,2.20
2018-11-26T23:20:08.722Z,2.30
2018-11-26T23:22:36.549Z,2.30
2018-11-26T23:25:05.121Z,2.30
2018-11-26T23:27:37.987Z,2.30
2018-11-26T23:30:29.935Z,2.30
2018-11-26T23:33:02.207Z,2.30
2018-11-26T23:35:29.960Z,2.30
2018-11-26T23:37:57.666Z,2.30
2018-11-26T23:40:25.590Z,2.30
2018-11-26T23:42:53.188Z,2.30
2018-11-26T23:45:22.207Z,2.30
2018-11-26T23:47:49.782Z,2.30
2018-11-26T23:50:17.504Z,2.30
2018-11-26T23:52:45.787Z,2.30
2018-11-26T23:55:15.480Z,2.30
2018-11-26T23:57:43.687Z,2.30
